sensor_id;sensor_type;location;lat;lon;timestamp;pressure;altitude;pressure_sealevel;temperature;humidity
18918;BME280;9591;52.742;13.650;2023-04-01T00:01:09;99169.16;;;12.51;100.00
18918;BME280;9591;52.742;13.650;2023-04-01T00:03:56;99166.50;;;12.51;100.00
18918;BME280;9591;52.742;13.650;2023-04-01T00:06:43;99164.59;;;12.53;100.00
18918;BME280;9591;52.742;13.650;2023-04-01T00:09:31;99161.19;;;12.51;100.00
18918;BME280;9591;52.742;13.650;2023-04-01T00:12:18;99166.28;;;12.54;100.00
18918;BME280;9591;52.742;13.650;2023-04-01T00:15:07;99169.69;;;12.56;100.00
18918;BME280;9591;52.742;13.650;2023-04-01T00:17:54;99167.91;;;12.56;100.00
18918;BME280;9591;52.742;13.650;2023-04-01T00:20:43;99167.16;;;12.54;100.00
18918;BME280;9591;52.742;13.650;2023-04-01T00:23:30;99165.78;;;12.61;100.00
18918;BME280;9591;52.742;13.650;2023-04-01T00:26:19;99169.31;;;12.62;100.00
18918;BME280;9591;52.742;13.650;2023-04-01T00:29:07;99163.63;;;12.54;100.00
18918;BME280;9591;52.742;13.650;2023-04-01T00:31:55;99170.94;;;12.50;100.00
18918;BME280;9591;52.742;13.650;2023-04-01T00:34:42;99168.84;;;12.55;100.00
18918;BME280;9591;52.742;13.650;2023-04-01T00:37:29;99168.09;;;12.53;100.00
18918;BME280;9591;52.742;13.650;2023-04-01T00:40:24;99169.44;;;12.46;100.00
18918;BME280;9591;52.742;13.650;2023-04-01T00:43:15;99164.13;;;12.46;100.00
18918;BME280;9591;52.742;13.650;2023-04-01T00:46:03;99171.00;;;12.63;100.00
18918;BME280;9591;52.742;13.650;2023-04-01T00:48:53;99167.84;;;12.70;100.00
18918;BME280;9591;52.742;13.650;2023-04-01T00:51:43;99167.41;;;12.64;100.00
18918;BME280;9591;52.742;13.650;2023-04-01T00:54:32;99164.84;;;12.62;100.00
18918;BME280;9591;52.742;13.650;2023-04-01T00:57:23;99166.66;;;12.62;100.00
18918;BME280;9591;52.742;13.650;2023-04-01T01:00:14;99173.75;;;12.61;100.00
18918;BME280;9591;52.742;13.650;2023-04-01T01:03:01;99171.09;;;12.61;100.00
18918;BME280;9591;52.742;13.650;2023-04-01T01:06:08;99165.09;;;12.72;100.00
18918;BME280;9591;52.742;13.650;2023-04-01T01:09:10;99169.56;;;12.71;100.00
18918;BME280;9591;52.742;13.650;2023-04-01T01:12:06;99167.41;;;12.64;100.00
18918;BME280;9591;52.742;13.650;2023-04-01T01:15:01;99169.75;;;12.68;100.00
18918;BME280;9591;52.742;13.650;2023-04-01T01:17:57;99162.94;;;12.64;100.00
18918;BME280;9591;52.742;13.650;2023-04-01T01:21:03;99167.50;;;12.62;100.00
18918;BME280;9591;52.742;13.650;2023-04-01T01:24:08;99165.16;;;12.58;100.00
18918;BME280;9591;52.742;13.650;2023-04-01T01:27:02;99162.50;;;12.58;100.00
18918;BME280;9591;52.742;13.650;2023-04-01T01:30:10;99166.28;;;12.54;100.00
18918;BME280;9591;52.742;13.650;2023-04-01T01:33:18;99154.56;;;12.43;100.00
18918;BME280;9591;52.742;13.650;2023-04-01T01:36:13;99165.91;;;12.60;100.00
18918;BME280;9591;52.742;13.650;2023-04-01T01:39:01;99167.59;;;12.61;100.00
18918;BME280;9591;52.742;13.650;2023-04-01T01:41:49;99171.00;;;12.63;100.00
18918;BME280;9591;52.742;13.650;2023-04-01T01:44:37;99169.97;;;12.65;100.00
18918;BME280;9591;52.742;13.650;2023-04-01T01:47:25;99171.16;;;12.74;100.00
18918;BME280;9591;52.742;13.650;2023-04-01T01:50:13;99175.41;;;12.76;100.00
18918;BME280;9591;52.742;13.650;2023-04-01T01:53:03;99175.38;;;12.64;100.00
18918;BME280;9591;52.742;13.650;2023-04-01T01:55:50;99179.19;;;12.60;100.00
18918;BME280;9591;52.742;13.650;2023-04-01T01:58:39;99178.22;;;12.61;100.00
18918;BME280;9591;52.742;13.650;2023-04-01T02:01:34;99174.81;;;12.59;100.00
18918;BME280;9591;52.742;13.650;2023-04-01T02:04:28;99175.75;;;12.58;100.00
18918;BME280;9591;52.742;13.650;2023-04-01T02:07:19;99177.56;;;12.57;100.00
18918;BME280;9591;52.742;13.650;2023-04-01T02:10:09;99183.94;;;12.55;100.00
18918;BME280;9591;52.742;13.650;2023-04-01T02:12:59;99181.38;;;12.53;100.00
18918;BME280;9591;52.742;13.650;2023-04-01T02:15:49;99186.78;;;12.52;100.00
18918;BME280;9591;52.742;13.650;2023-04-01T02:18:38;99181.09;;;12.43;100.00
18918;BME280;9591;52.742;13.650;2023-04-01T02:21:28;99173.53;;;12.37;100.00
18918;BME280;9591;52.742;13.650;2023-04-01T02:24:18;99189.25;;;12.55;100.00
18918;BME280;9591;52.742;13.650;2023-04-01T02:27:08;99184.31;;;12.48;100.00
18918;BME280;9591;52.742;13.650;2023-04-01T02:29:56;99186.03;;;12.50;100.00
18918;BME280;9591;52.742;13.650;2023-04-01T02:32:44;99194.00;;;12.50;100.00
18918;BME280;9591;52.742;13.650;2023-04-01T02:35:33;99196.38;;;12.40;100.00
18918;BME280;9591;52.742;13.650;2023-04-01T02:38:21;99189.66;;;12.34;100.00
18918;BME280;9591;52.742;13.650;2023-04-01T02:41:08;99197.53;;;12.36;100.00
18918;BME280;9591;52.742;13.650;2023-04-01T02:43:57;99202.53;;;12.40;100.00
18918;BME280;9591;52.742;13.650;2023-04-01T02:46:44;99204.34;;;12.40;100.00
18918;BME280;9591;52.742;13.650;2023-04-01T02:49:31;99207.28;;;12.35;100.00
18918;BME280;9591;52.742;13.650;2023-04-01T02:52:18;99207.38;;;12.34;100.00
18918;BME280;9591;52.742;13.650;2023-04-01T02:55:05;99218.00;;;12.34;100.00
18918;BME280;9591;52.742;13.650;2023-04-01T02:57:52;99210.13;;;12.32;100.00
18918;BME280;9591;52.742;13.650;2023-04-01T03:00:40;99214.31;;;12.22;100.00
18918;BME280;9591;52.742;13.650;2023-04-01T03:03:27;99217.94;;;12.21;100.00
18918;BME280;9591;52.742;13.650;2023-04-01T03:06:15;99228.16;;;12.27;100.00
18918;BME280;9591;52.742;13.650;2023-04-01T03:09:03;99215.16;;;12.37;100.00
18918;BME280;9591;52.742;13.650;2023-04-01T03:11:49;99214.50;;;12.33;100.00
18918;BME280;9591;52.742;13.650;2023-04-01T03:14:36;99221.91;;;12.28;100.00
18918;BME280;9591;52.742;13.650;2023-04-01T03:17:24;99218.19;;;12.31;100.00
18918;BME280;9591;52.742;13.650;2023-04-01T03:20:12;99223.31;;;12.34;100.00
18918;BME280;9591;52.742;13.650;2023-04-01T03:23:00;99223.97;;;12.37;100.00
18918;BME280;9591;52.742;13.650;2023-04-01T03:25:46;99194.31;;;12.17;100.00
18918;BME280;9591;52.742;13.650;2023-04-01T03:28:33;99224.16;;;12.34;100.00
18918;BME280;9591;52.742;13.650;2023-04-01T03:31:20;99221.50;;;12.34;100.00
18918;BME280;9591;52.742;13.650;2023-04-01T03:34:13;99221.50;;;12.34;100.00
18918;BME280;9591;52.742;13.650;2023-04-01T03:37:00;99227.78;;;12.33;100.00
18918;BME280;9591;52.742;13.650;2023-04-01T03:39:48;99232.13;;;12.34;100.00
18918;BME280;9591;52.742;13.650;2023-04-01T03:42:35;99230.03;;;12.39;100.00
18918;BME280;9591;52.742;13.650;2023-04-01T03:45:21;99237.81;;;12.42;100.00
18918;BME280;9591;52.742;13.650;2023-04-01T03:48:08;99233.44;;;12.41;100.00
18918;BME280;9591;52.742;13.650;2023-04-01T03:50:56;99242.38;;;12.40;100.00
18918;BME280;9591;52.742;13.650;2023-04-01T03:53:43;99240.84;;;12.36;100.00
18918;BME280;9591;52.742;13.650;2023-04-01T03:56:30;99247.78;;;12.39;100.00
18918;BME280;9591;52.742;13.650;2023-04-01T03:59:17;99244.25;;;12.38;100.00
18918;BME280;9591;52.742;13.650;2023-04-01T04:02:03;99251.38;;;12.38;100.00
18918;BME280;9591;52.742;13.650;2023-04-01T04:04:51;99257.44;;;12.40;100.00
18918;BME280;9591;52.742;13.650;2023-04-01T04:07:39;99245.69;;;12.44;100.00
18918;BME280;9591;52.742;13.650;2023-04-01T04:10:26;99253.56;;;12.45;100.00
18918;BME280;9591;52.742;13.650;2023-04-01T04:13:14;99252.41;;;12.50;100.00
18918;BME280;9591;52.742;13.650;2023-04-01T04:16:08;99251.25;;;12.54;100.00
18918;BME280;9591;52.742;13.650;2023-04-01T04:19:00;99256.56;;;12.54;100.00
18918;BME280;9591;52.742;13.650;2023-04-01T04:21:46;99264.84;;;12.49;100.00
18918;BME280;9591;52.742;13.650;2023-04-01T04:24:35;99256.00;;;12.48;100.00
18918;BME280;9591;52.742;13.650;2023-04-01T04:27:28;99260.38;;;12.50;100.00
18918;BME280;9591;52.742;13.650;2023-04-01T04:30:35;99261.22;;;12.50;100.00
18918;BME280;9591;52.742;13.650;2023-04-01T04:33:22;99269.28;;;12.48;100.00
18918;BME280;9591;52.742;13.650;2023-04-01T04:36:09;99266.63;;;12.48;100.00
18918;BME280;9591;52.742;13.650;2023-04-01T04:38:56;99268.44;;;12.48;100.00
18918;BME280;9591;52.742;13.650;2023-04-01T04:41:49;99271.66;;;12.53;100.00
18918;BME280;9591;52.742;13.650;2023-04-01T04:44:36;99271.28;;;12.59;100.00
18918;BME280;9591;52.742;13.650;2023-04-01T04:47:24;99277.34;;;12.61;100.00
18918;BME280;9591;52.742;13.650;2023-04-01T04:50:10;99280.94;;;12.60;100.00
18918;BME280;9591;52.742;13.650;2023-04-01T04:52:58;99282.56;;;12.63;100.00
18918;BME280;9591;52.742;13.650;2023-04-01T04:55:47;99284.25;;;12.64;100.00
18918;BME280;9591;52.742;13.650;2023-04-01T04:58:54;99283.31;;;12.65;100.00
18918;BME280;9591;52.742;13.650;2023-04-01T05:01:51;99288.44;;;12.68;100.00
18918;BME280;9591;52.742;13.650;2023-04-01T05:04:38;99293.19;;;12.63;100.00
18918;BME280;9591;52.742;13.650;2023-04-01T05:07:27;99291.38;;;12.49;100.00
18918;BME280;9591;52.742;13.650;2023-04-01T05:10:14;99295.81;;;12.63;100.00
18918;BME280;9591;52.742;13.650;2023-04-01T05:13:02;99294.03;;;12.63;100.00
18918;BME280;9591;52.742;13.650;2023-04-01T05:15:50;99300.28;;;12.62;100.00
18918;BME280;9591;52.742;13.650;2023-04-01T05:18:38;99300.28;;;12.62;100.00
18918;BME280;9591;52.742;13.650;2023-04-01T05:21:25;99296.59;;;12.65;100.00
18918;BME280;9591;52.742;13.650;2023-04-01T05:24:13;99308.34;;;12.75;100.00
18918;BME280;9591;52.742;13.650;2023-04-01T05:27:00;99310.91;;;12.76;100.00
18918;BME280;9591;52.742;13.650;2023-04-01T05:29:47;99306.53;;;12.75;100.00
18918;BME280;9591;52.742;13.650;2023-04-01T05:32:55;99312.53;;;12.65;100.00
18918;BME280;9591;52.742;13.650;2023-04-01T05:35:42;99312.53;;;12.65;100.00
18918;BME280;9591;52.742;13.650;2023-04-01T05:38:30;99315.09;;;12.66;100.00
18918;BME280;9591;52.742;13.650;2023-04-01T05:41:17;99321.78;;;12.86;100.00
18918;BME280;9591;52.742;13.650;2023-04-01T05:44:05;99322.47;;;12.61;100.00
18918;BME280;9591;52.742;13.650;2023-04-01T05:47:16;99330.16;;;12.37;100.00
18918;BME280;9591;52.742;13.650;2023-04-01T05:50:06;99333.09;;;12.33;100.00
18918;BME280;9591;52.742;13.650;2023-04-01T05:52:55;99329.31;;;12.37;100.00
18918;BME280;9591;52.742;13.650;2023-04-01T05:55:43;99336.03;;;12.28;100.00
18918;BME280;9591;52.742;13.650;2023-04-01T05:58:32;99331.31;;;12.47;100.00
18918;BME280;9591;52.742;13.650;2023-04-01T06:01:21;99334.81;;;12.48;100.00
18918;BME280;9591;52.742;13.650;2023-04-01T06:04:13;99342.28;;;12.27;100.00
18918;BME280;9591;52.742;13.650;2023-04-01T06:07:11;99342.31;;;12.41;100.00
18918;BME280;9591;52.742;13.650;2023-04-01T06:09:59;99349.69;;;12.36;100.00
18918;BME280;9591;52.742;13.650;2023-04-01T06:12:52;99354.13;;;12.22;100.00
18918;BME280;9591;52.742;13.650;2023-04-01T06:15:50;99355.66;;;12.26;100.00
18918;BME280;9591;52.742;13.650;2023-04-01T06:19:08;99361.34;;;12.05;100.00
18918;BME280;9591;52.742;13.650;2023-04-01T06:25:33;99369.38;;;12.04;100.00
18918;BME280;9591;52.742;13.650;2023-04-01T06:28:41;99378.59;;;12.12;100.00
18918;BME280;9591;52.742;13.650;2023-04-01T06:31:46;99388.97;;;11.87;100.00
18918;BME280;9591;52.742;13.650;2023-04-01T06:34:56;99387.06;;;11.73;100.00
18918;BME280;9591;52.742;13.650;2023-04-01T06:38:19;99384.50;;;11.72;100.00
18918;BME280;9591;52.742;13.650;2023-04-01T06:41:31;99389.59;;;11.29;100.00
18918;BME280;9591;52.742;13.650;2023-04-01T06:44:30;99401.56;;;11.52;100.00
18918;BME280;9591;52.742;13.650;2023-04-01T06:47:51;99402.50;;;11.35;100.00
18918;BME280;9591;52.742;13.650;2023-04-01T06:51:11;99401.47;;;11.54;100.00
18918;BME280;9591;52.742;13.650;2023-04-01T06:54:24;99399.00;;;11.35;100.00
18918;BME280;9591;52.742;13.650;2023-04-01T06:57:29;99410.03;;;11.59;100.00
18918;BME280;9591;52.742;13.650;2023-04-01T07:00:22;99414.22;;;11.78;100.00
18918;BME280;9591;52.742;13.650;2023-04-01T07:03:18;99414.13;;;11.48;100.00
18918;BME280;9591;52.742;13.650;2023-04-01T07:06:13;99418.66;;;11.46;100.00
18918;BME280;9591;52.742;13.650;2023-04-01T07:09:12;99420.28;;;11.33;100.00
18918;BME280;9591;52.742;13.650;2023-04-01T07:12:36;99424.25;;;11.10;100.00
18918;BME280;9591;52.742;13.650;2023-04-01T07:15:48;99416.09;;;11.29;100.00
18918;BME280;9591;52.742;13.650;2023-04-01T07:18:40;99423.03;;;11.32;100.00
18918;BME280;9591;52.742;13.650;2023-04-01T07:21:30;99427.56;;;11.61;100.00
18918;BME280;9591;52.742;13.650;2023-04-01T07:24:34;99433.56;;;11.80;100.00
18918;BME280;9591;52.742;13.650;2023-04-01T07:27:26;99428.06;;;11.84;100.00
18918;BME280;9591;52.742;13.650;2023-04-01T07:30:15;99431.53;;;12.00;100.00
18918;BME280;9591;52.742;13.650;2023-04-01T07:33:05;99429.50;;;11.73;100.00
18918;BME280;9591;52.742;13.650;2023-04-01T07:35:57;99449.44;;;11.49;100.00
18918;BME280;9591;52.742;13.650;2023-04-01T07:38:59;99447.06;;;11.44;100.00
18918;BME280;9591;52.742;13.650;2023-04-01T07:42:16;99444.22;;;11.32;100.00
18918;BME280;9591;52.742;13.650;2023-04-01T07:45:17;99456.56;;;11.17;100.00
18918;BME280;9591;52.742;13.650;2023-04-01T07:48:17;99446.81;;;11.18;100.00
18918;BME280;9591;52.742;13.650;2023-04-01T07:51:11;99457.75;;;11.27;100.00
18918;BME280;9591;52.742;13.650;2023-04-01T07:54:06;99459.28;;;11.47;100.00
18918;BME280;9591;52.742;13.650;2023-04-01T07:56:59;99463.38;;;11.68;100.00
18918;BME280;9591;52.742;13.650;2023-04-01T08:00:08;99464.63;;;11.78;100.00
18918;BME280;9591;52.742;13.650;2023-04-01T08:03:25;99475.28;;;11.61;100.00
18918;BME280;9591;52.742;13.650;2023-04-01T08:06:24;99474.94;;;11.67;100.00
18918;BME280;9591;52.742;13.650;2023-04-01T08:09:17;99473.31;;;11.65;100.00
18918;BME280;9591;52.742;13.650;2023-04-01T08:12:31;99472.03;;;11.56;100.00
18918;BME280;9591;52.742;13.650;2023-04-01T08:15:50;99478.00;;;11.75;100.00
18918;BME280;9591;52.742;13.650;2023-04-01T08:19:00;99478.81;;;11.77;100.00
18918;BME280;9591;52.742;13.650;2023-04-01T08:21:52;99495.03;;;11.71;100.00
18918;BME280;9591;52.742;13.650;2023-04-01T08:24:42;99488.03;;;11.70;100.00
18918;BME280;9591;52.742;13.650;2023-04-01T08:27:41;99491.63;;;11.69;100.00
18918;BME280;9591;52.742;13.650;2023-04-01T08:30:37;99496.50;;;11.93;100.00
18918;BME280;9591;52.742;13.650;2023-04-01T08:33:28;99503.28;;;11.82;100.00
18918;BME280;9591;52.742;13.650;2023-04-01T08:36:33;99501.13;;;11.58;100.00
18918;BME280;9591;52.742;13.650;2023-04-01T08:39:50;99508.03;;;11.60;100.00
18918;BME280;9591;52.742;13.650;2023-04-01T08:42:51;99507.28;;;11.74;100.00
18918;BME280;9591;52.742;13.650;2023-04-01T08:45:59;99515.16;;;11.75;100.00
18918;BME280;9591;52.742;13.650;2023-04-01T08:52:14;99519.03;;;11.86;100.00
18918;BME280;9591;52.742;13.650;2023-04-01T08:55:31;99528.28;;;11.78;100.00
18918;BME280;9591;52.742;13.650;2023-04-01T08:58:54;99529.44;;;11.57;100.00
18918;BME280;9591;52.742;13.650;2023-04-01T09:02:15;99528.06;;;11.50;100.00
18918;BME280;9591;52.742;13.650;2023-04-01T09:05:29;99534.38;;;11.47;100.00
18918;BME280;9591;52.742;13.650;2023-04-01T09:08:32;99529.75;;;11.51;100.00
18918;BME280;9591;52.742;13.650;2023-04-01T09:11:35;99534.38;;;11.63;100.00
18918;BME280;9591;52.742;13.650;2023-04-01T09:15:16;99537.56;;;11.70;100.00
18918;BME280;9591;52.742;13.650;2023-04-01T09:18:23;99547.84;;;11.27;100.00
18918;BME280;9591;52.742;13.650;2023-04-01T09:21:24;99537.97;;;11.46;100.00
18918;BME280;9591;52.742;13.650;2023-04-01T09:24:43;99548.50;;;11.64;100.00
18918;BME280;9591;52.742;13.650;2023-04-01T09:27:43;99553.44;;;11.87;100.00
18918;BME280;9591;52.742;13.650;2023-04-01T09:30:55;99551.38;;;12.08;100.00
18918;BME280;9591;52.742;13.650;2023-04-01T09:37:30;99566.03;;;11.66;100.00
18918;BME280;9591;52.742;13.650;2023-04-01T09:40:37;99572.03;;;11.54;100.00
18918;BME280;9591;52.742;13.650;2023-04-01T09:43:44;99580.97;;;11.03;100.00
18918;BME280;9591;52.742;13.650;2023-04-01T09:46:44;99573.56;;;11.09;100.00
18918;BME280;9591;52.742;13.650;2023-04-01T09:49:55;99581.72;;;11.38;100.00
18918;BME280;9591;52.742;13.650;2023-04-01T09:52:53;99577.31;;;10.88;100.00
18918;BME280;9591;52.742;13.650;2023-04-01T09:56:19;99583.28;;;11.26;100.00
18918;BME280;9591;52.742;13.650;2023-04-01T09:59:49;99588.13;;;11.34;100.00
18918;BME280;9591;52.742;13.650;2023-04-01T10:03:24;99588.41;;;11.78;100.00
18918;BME280;9591;52.742;13.650;2023-04-01T10:10:23;99599.13;;;12.08;100.00
18918;BME280;9591;52.742;13.650;2023-04-01T10:17:28;99599.09;;;11.76;100.00
18918;BME280;9591;52.742;13.650;2023-04-01T10:24:10;99614.09;;;11.60;100.00
18918;BME280;9591;52.742;13.650;2023-04-01T10:27:29;99613.59;;;11.54;100.00
18918;BME280;9591;52.742;13.650;2023-04-01T10:34:14;99619.69;;;11.71;100.00
18918;BME280;9591;52.742;13.650;2023-04-01T10:37:19;99623.00;;;11.59;100.00
18918;BME280;9591;52.742;13.650;2023-04-01T10:40:27;99622.81;;;11.46;100.00
18918;BME280;9591;52.742;13.650;2023-04-01T10:44:01;99620.00;;;11.49;100.00
18918;BME280;9591;52.742;13.650;2023-04-01T10:50:39;99632.78;;;11.26;100.00
18918;BME280;9591;52.742;13.650;2023-04-01T10:53:40;99631.53;;;10.64;100.00
18918;BME280;9591;52.742;13.650;2023-04-01T10:56:56;99618.75;;;10.89;100.00
18918;BME280;9591;52.742;13.650;2023-04-01T11:04:55;99641.50;;;10.76;100.00
18918;BME280;9591;52.742;13.650;2023-04-01T11:08:30;99634.19;;;11.15;100.00
18918;BME280;9591;52.742;13.650;2023-04-01T11:11:57;99639.31;;;11.19;100.00
18918;BME280;9591;52.742;13.650;2023-04-01T11:15:31;99652.41;;;11.22;100.00
18918;BME280;9591;52.742;13.650;2023-04-01T11:22:24;99652.34;;;11.06;100.00
18918;BME280;9591;52.742;13.650;2023-04-01T11:25:25;99654.38;;;11.01;100.00
18918;BME280;9591;52.742;13.650;2023-04-01T11:28:53;99665.19;;;10.96;100.00
18918;BME280;9591;52.742;13.650;2023-04-01T11:31:55;99672.84;;;11.02;100.00
18918;BME280;9591;52.742;13.650;2023-04-01T11:35:14;99664.91;;;10.49;100.00
18918;BME280;9591;52.742;13.650;2023-04-01T11:38:14;99670.19;;;10.49;100.00
18918;BME280;9591;52.742;13.650;2023-04-01T11:41:17;99671.09;;;10.67;100.00
18918;BME280;9591;52.742;13.650;2023-04-01T11:44:43;99672.81;;;10.85;100.00
18918;BME280;9591;52.742;13.650;2023-04-01T11:48:01;99681.78;;;10.82;100.00
18918;BME280;9591;52.742;13.650;2023-04-01T11:51:04;99683.50;;;10.47;100.00
18918;BME280;9591;52.742;13.650;2023-04-01T11:53:59;99684.34;;;10.48;100.00
18918;BME280;9591;52.742;13.650;2023-04-01T11:57:01;99699.06;;;10.72;100.00
18918;BME280;9591;52.742;13.650;2023-04-01T12:00:02;99701.97;;;10.49;100.00
18918;BME280;9591;52.742;13.650;2023-04-01T12:03:15;99698.66;;;10.63;100.00
18918;BME280;9591;52.742;13.650;2023-04-01T12:06:12;99701.09;;;10.84;100.00
18918;BME280;9591;52.742;13.650;2023-04-01T12:09:04;99704.88;;;11.15;100.00
18918;BME280;9591;52.742;13.650;2023-04-01T12:12:09;99698.94;;;11.10;100.00
18918;BME280;9591;52.742;13.650;2023-04-01T12:15:13;99716.88;;;10.69;100.00
18918;BME280;9591;52.742;13.650;2023-04-01T12:18:10;99713.75;;;10.61;100.00
18918;BME280;9591;52.742;13.650;2023-04-01T12:21:11;99725.53;;;10.36;100.00
18918;BME280;9591;52.742;13.650;2023-04-01T12:24:40;99726.06;;;10.43;100.00
18918;BME280;9591;52.742;13.650;2023-04-01T12:27:45;99724.72;;;10.53;100.00
18918;BME280;9591;52.742;13.650;2023-04-01T12:30:55;99728.97;;;10.38;100.00
18918;BME280;9591;52.742;13.650;2023-04-01T12:33:53;99729.91;;;10.37;100.00
18918;BME280;9591;52.742;13.650;2023-04-01T12:36:53;99728.84;;;10.59;100.00
18918;BME280;9591;52.742;13.650;2023-04-01T12:39:55;99731.16;;;10.47;100.00
18918;BME280;9591;52.742;13.650;2023-04-01T12:42:55;99738.94;;;10.69;100.00
18918;BME280;9591;52.742;13.650;2023-04-01T12:45:50;99741.44;;;10.72;100.00
18918;BME280;9591;52.742;13.650;2023-04-01T12:48:57;99747.13;;;10.82;100.00
18918;BME280;9591;52.742;13.650;2023-04-01T12:51:58;99749.75;;;10.46;100.00
18918;BME280;9591;52.742;13.650;2023-04-01T12:55:19;99760.34;;;10.65;100.00
18918;BME280;9591;52.742;13.650;2023-04-01T13:01:52;99761.81;;;10.34;100.00
18918;BME280;9591;52.742;13.650;2023-04-01T13:04:55;99777.59;;;10.55;100.00
18918;BME280;9591;52.742;13.650;2023-04-01T13:07:53;99778.00;;;10.64;100.00
18918;BME280;9591;52.742;13.650;2023-04-01T13:11:00;99779.28;;;10.18;100.00
18918;BME280;9591;52.742;13.650;2023-04-01T13:14:14;99780.03;;;10.22;100.00
18918;BME280;9591;52.742;13.650;2023-04-01T13:17:21;99782.34;;;10.09;100.00
18918;BME280;9591;52.742;13.650;2023-04-01T13:20:16;99793.06;;;10.26;100.00
18918;BME280;9591;52.742;13.650;2023-04-01T13:23:14;99800.53;;;10.73;100.00
18918;BME280;9591;52.742;13.650;2023-04-01T13:26:11;99715.81;;;9.98;100.00
18918;BME280;9591;52.742;13.650;2023-04-01T13:29:04;99799.97;;;10.85;100.00
18918;BME280;9591;52.742;13.650;2023-04-01T13:32:13;99804.63;;;10.80;100.00
18918;BME280;9591;52.742;13.650;2023-04-01T13:35:18;99764.44;;;10.34;100.00
18918;BME280;9591;52.742;13.650;2023-04-01T13:38:20;99817.06;;;10.59;100.00
18918;BME280;9591;52.742;13.650;2023-04-01T13:41:18;99814.72;;;10.53;100.00
18918;BME280;9591;52.742;13.650;2023-04-01T13:44:12;99815.28;;;10.41;100.00
18918;BME280;9591;52.742;13.650;2023-04-01T13:47:34;99819.59;;;10.81;100.00
18918;BME280;9591;52.742;13.650;2023-04-01T13:50:36;99814.41;;;10.40;100.00
18918;BME280;9591;52.742;13.650;2023-04-01T13:53:52;99829.38;;;10.60;100.00
18918;BME280;9591;52.742;13.650;2023-04-01T13:56:50;99831.53;;;10.13;100.00
18918;BME280;9591;52.742;13.650;2023-04-01T14:00:15;99831.88;;;10.05;100.00
18918;BME280;9591;52.742;13.650;2023-04-01T14:06:25;99845.56;;;9.74;100.00
18918;BME280;9591;52.742;13.650;2023-04-01T14:09:29;99848.47;;;10.09;100.00
18918;BME280;9591;52.742;13.650;2023-04-01T14:12:27;99856.50;;;10.46;100.00
18918;BME280;9591;52.742;13.650;2023-04-01T14:15:25;99858.41;;;10.04;100.00
18918;BME280;9591;52.742;13.650;2023-04-01T14:18:33;99851.31;;;9.64;100.00
18918;BME280;9591;52.742;13.650;2023-04-01T14:21:33;99862.56;;;9.89;100.00
18918;BME280;9591;52.742;13.650;2023-04-01T14:24:36;99870.06;;;10.20;100.00
18918;BME280;9591;52.742;13.650;2023-04-01T14:27:41;99867.44;;;10.18;100.00
18918;BME280;9591;52.742;13.650;2023-04-01T14:30:42;99872.31;;;10.48;100.00
18918;BME280;9591;52.742;13.650;2023-04-01T14:33:41;99878.66;;;10.25;100.00
18918;BME280;9591;52.742;13.650;2023-04-01T14:36:43;99875.19;;;10.03;100.00
18918;BME280;9591;52.742;13.650;2023-04-01T14:39:46;99880.09;;;9.92;100.00
18918;BME280;9591;52.742;13.650;2023-04-01T14:42:59;99881.53;;;9.99;100.00
18918;BME280;9591;52.742;13.650;2023-04-01T14:45:59;99849.19;;;10.12;100.00
18918;BME280;9591;52.742;13.650;2023-04-01T14:48:55;99895.16;;;10.10;100.00
18918;BME280;9591;52.742;13.650;2023-04-01T14:51:46;99886.41;;;9.67;100.00
18918;BME280;9591;52.742;13.650;2023-04-01T14:54:36;99890.78;;;9.89;100.00
18918;BME280;9591;52.742;13.650;2023-04-01T14:57:26;99899.25;;;9.97;100.00
18918;BME280;9591;52.742;13.650;2023-04-01T15:00:17;99903.81;;;9.73;100.00
18918;BME280;9591;52.742;13.650;2023-04-01T15:03:11;99911.56;;;9.98;100.00
18918;BME280;9591;52.742;13.650;2023-04-01T15:06:21;99909.97;;;9.94;100.00
18918;BME280;9591;52.742;13.650;2023-04-01T15:09:18;99920.75;;;9.89;100.00
18918;BME280;9591;52.742;13.650;2023-04-01T15:12:17;99919.22;;;9.83;100.00
18918;BME280;9591;52.742;13.650;2023-04-01T15:15:24;99914.56;;;10.10;100.00
18918;BME280;9591;52.742;13.650;2023-04-01T15:18:16;99925.66;;;10.18;100.00
18918;BME280;9591;52.742;13.650;2023-04-01T15:21:18;99933.38;;;9.61;100.00
18918;BME280;9591;52.742;13.650;2023-04-01T15:24:07;99941.56;;;9.54;100.00
18918;BME280;9591;52.742;13.650;2023-04-01T15:27:13;99937.41;;;9.49;100.00
18918;BME280;9591;52.742;13.650;2023-04-01T15:30:18;99956.19;;;9.63;100.00
18918;BME280;9591;52.742;13.650;2023-04-01T15:33:20;99949.13;;;9.64;100.00
18918;BME280;9591;52.742;13.650;2023-04-01T15:36:19;99957.44;;;9.54;100.00
18918;BME280;9591;52.742;13.650;2023-04-01T15:39:14;99951.34;;;9.31;100.00
18918;BME280;9591;52.742;13.650;2023-04-01T15:42:19;99960.22;;;9.30;100.00
18918;BME280;9591;52.742;13.650;2023-04-01T15:45:30;99968.22;;;9.50;100.00
18918;BME280;9591;52.742;13.650;2023-04-01T15:48:28;99969.34;;;9.21;100.00
18918;BME280;9591;52.742;13.650;2023-04-01T15:51:26;99967.03;;;9.35;100.00
18918;BME280;9591;52.742;13.650;2023-04-01T15:54:31;99981.31;;;9.08;100.00
18918;BME280;9591;52.742;13.650;2023-04-01T15:57:27;99979.94;;;9.43;100.00
18918;BME280;9591;52.742;13.650;2023-04-01T16:00:23;99983.41;;;9.22;100.00
18918;BME280;9591;52.742;13.650;2023-04-01T16:03:23;99986.50;;;8.86;100.00
18918;BME280;9591;52.742;13.650;2023-04-01T16:06:31;99994.09;;;8.95;100.00
18918;BME280;9591;52.742;13.650;2023-04-01T16:09:34;99997.56;;;9.20;100.00
18918;BME280;9591;52.742;13.650;2023-04-01T16:12:39;100006.28;;;8.99;100.00
18918;BME280;9591;52.742;13.650;2023-04-01T16:15:36;100011.84;;;8.92;100.00
18918;BME280;9591;52.742;13.650;2023-04-01T16:18:36;100013.00;;;9.08;100.00